SBCJ Informações do Aeroporto

Informações da Pista
Pista 10 Comprimento 6562 ft Largura 148 ft
Elevação 0 ft Limite 0 ft Heading 0
Pista 28 Comprimento 6562 ft Largura 148 ft
Elevação 0 ft Limite 0 ft Heading 0
Frequências do Aeroporto
Tipo AFIS Nome RDO Frequência 131.7 MHZ
Navaids do Aeroporto
Tipo VOR-DME Nome Carajas Frequência 112400 KHZ
Tipo NDB Nome Carajas Frequência 170 KHZ
Informações meteorológicas do aeroporto e NOTAM
ADDS - METARS form results

(2346 UTC 25 May 2019)
Data provider http://aviationweather.gov/metar/data/
 
Forecast for: SBCJ (CARAJAS/MARABA , BR)
Text: TAF SBCJ 252200Z 2600/2612 00000KT CAVOK TN19/2605Z TX23/2612Z
Forecast period: 0000 to 0800 UTC 26 May 2019
Forecast type: FROM: standard forecast or significant change
Winds: calm
Visibility: 6 or more miles 10+ km)
Ceiling: unknown
Clouds: missing
Weather: no significant weather forecast for this period
Text: BECMG 2608/2610 9999 SCT009 RMK PFM
Forecast period: 0800 to 1200 UTC 26 May 2019
Forecast type: BECOMING: Conditions expected to become as follows by 1000 UTC 26 May 2019
Winds: calm
Visibility: 6 or more miles 10+ km)
Ceiling: at least 12,000 feet AGL
Clouds: scattered clouds at 900 feet AGL
Weather: no significant weather forecast for this period